createdAt,value
2017-11-10T00:01:29.492Z,8.40
2017-11-10T00:03:56.846Z,8.30
2017-11-10T00:06:23.068Z,8.30
2017-11-10T00:08:50.054Z,8.30
2017-11-10T00:11:17.273Z,8.20
2017-11-10T00:13:43.498Z,8.20
2017-11-10T00:16:09.824Z,8.30
2017-11-10T00:18:37.205Z,8.30
2017-11-10T00:21:03.387Z,8.20
2017-11-10T00:23:30.350Z,8.20
2017-11-10T00:25:56.573Z,8.20
2017-11-10T00:28:22.772Z,8.20
2017-11-10T00:30:50.699Z,8.20
2017-11-10T00:33:17.633Z,8.20
2017-11-10T00:35:44.681Z,8.20
2017-11-10T00:38:11.872Z,8.10
2017-11-10T00:40:38.906Z,8.20
2017-11-10T00:43:05.139Z,8.20
2017-11-10T00:45:32.087Z,8.20
2017-11-10T00:47:58.614Z,8.20
2017-11-10T00:50:26.466Z,8.10
2017-11-10T00:52:53.952Z,8.10
2017-11-10T00:55:21.144Z,8.10
2017-11-10T00:57:47.349Z,8.10
2017-11-10T01:00:14.633Z,8.10
2017-11-10T01:02:41.376Z,8.10
2017-11-10T01:05:07.880Z,8.10
2017-11-10T01:07:34.051Z,8.10
2017-11-10T01:10:00.946Z,8.20
2017-11-10T01:12:27.884Z,8.10
2017-11-10T01:14:55.716Z,8.10
2017-11-10T01:17:22.715Z,8.10
2017-11-10T01:19:50.669Z,8.20
2017-11-10T01:22:17.647Z,8.20
2017-11-10T01:24:43.861Z,8.20
2017-11-10T01:27:11.409Z,8.20
2017-11-10T01:29:39.184Z,8.20
2017-11-10T01:32:06.853Z,8.20
2017-11-10T01:34:34.955Z,8.20
2017-11-10T01:37:02.257Z,8.20
2017-11-10T01:39:28.547Z,8.20
2017-11-10T01:41:55.345Z,8.20
2017-11-10T01:44:22.181Z,8.20
2017-11-10T01:46:48.782Z,8.30
2017-11-10T01:49:19.982Z,8.10
2017-11-10T01:51:46.863Z,8.10
2017-11-10T01:54:13.314Z,8.10
2017-11-10T01:56:40.340Z,8.10
2017-11-10T01:59:06.644Z,8.10
2017-11-10T02:01:34.232Z,8.00
2017-11-10T02:04:00.456Z,8.00
2017-11-10T02:06:26.701Z,8.10
2017-11-10T02:08:54.610Z,8.00
2017-11-10T02:11:22.224Z,8.00
2017-11-10T02:13:49.656Z,8.00
2017-11-10T02:16:16.621Z,8.10
2017-11-10T02:18:43.808Z,8.10
2017-11-10T02:21:11.161Z,8.00
2017-11-10T02:23:38.219Z,8.00
2017-11-10T02:26:04.640Z,8.00
2017-11-10T02:28:30.888Z,8.00
2017-11-10T02:30:57.269Z,8.00
2017-11-10T02:33:24.580Z,8.10
2017-11-10T02:35:51.680Z,8.10
2017-11-10T02:38:18.635Z,8.10
2017-11-10T02:40:44.950Z,8.10
2017-11-10T02:43:12.034Z,8.00
2017-11-10T02:45:39.540Z,8.00
2017-11-10T02:48:05.733Z,8.10
2017-11-10T02:50:33.324Z,8.10
2017-11-10T02:53:00.516Z,8.00
2017-11-10T02:55:27.293Z,8.00
2017-11-10T02:57:54.006Z,8.00
2017-11-10T03:00:20.871Z,8.00
2017-11-10T03:02:48.231Z,8.00
2017-11-10T03:05:15.088Z,8.00
2017-11-10T03:07:41.322Z,7.90
2017-11-10T03:10:07.577Z,7.90
2017-11-10T03:12:35.528Z,7.80
2017-11-10T03:15:02.320Z,7.80
2017-11-10T03:17:30.062Z,7.90
2017-11-10T03:19:56.855Z,7.90
2017-11-10T03:22:23.109Z,8.00
2017-11-10T03:24:50.082Z,8.00
2017-11-10T03:27:16.651Z,8.00
2017-11-10T03:29:43.400Z,8.00
2017-11-10T03:32:09.637Z,8.00
2017-11-10T03:34:35.835Z,7.90
2017-11-10T03:37:02.423Z,8.00
2017-11-10T03:39:29.379Z,7.90
2017-11-10T03:41:56.984Z,7.90
2017-11-10T03:44:23.448Z,7.90
2017-11-10T03:46:51.125Z,7.90
2017-11-10T03:49:18.479Z,8.00
2017-11-10T03:51:45.545Z,7.90
2017-11-10T03:54:12.771Z,7.90
2017-11-10T03:56:39.759Z,8.00
2017-11-10T03:59:06.504Z,8.00
2017-11-10T04:01:33.295Z,8.10
2017-11-10T04:04:00.321Z,8.00
2017-11-10T04:06:27.954Z,8.00
2017-11-10T04:08:54.722Z,8.00
2017-11-10T04:11:21.764Z,8.00
2017-11-10T04:13:49.507Z,8.00
2017-11-10T04:16:16.722Z,8.00
2017-11-10T04:18:44.688Z,8.00
2017-11-10T04:21:12.239Z,8.00
2017-11-10T04:23:39.694Z,8.00
2017-11-10T04:26:06.632Z,8.10
2017-11-10T04:28:32.878Z,8.00
2017-11-10T04:31:01.075Z,8.00
2017-11-10T04:33:27.867Z,8.10
2017-11-10T04:35:55.492Z,8.00
2017-11-10T04:38:21.741Z,8.10
2017-11-10T04:40:47.952Z,8.00
2017-11-10T04:43:14.944Z,8.10
2017-11-10T04:45:42.513Z,8.10
2017-11-10T04:48:08.804Z,8.00
2017-11-10T04:50:35.028Z,8.00
2017-11-10T04:53:02.381Z,8.00
2017-11-10T04:55:29.122Z,8.00
2017-11-10T04:57:56.029Z,8.10
2017-11-10T05:00:23.609Z,8.10
2017-11-10T05:02:50.831Z,8.10
2017-11-10T05:05:17.100Z,8.10
2017-11-10T05:07:43.359Z,8.00
2017-11-10T05:10:10.854Z,8.00
2017-11-10T05:12:37.671Z,8.00
2017-11-10T05:15:05.606Z,8.00
2017-11-10T05:17:32.352Z,8.00
2017-11-10T05:19:58.670Z,8.00
2017-11-10T05:22:24.924Z,8.00
2017-11-10T05:24:52.848Z,8.00
2017-11-10T05:27:19.644Z,8.00
2017-11-10T05:29:47.211Z,8.10
2017-11-10T05:32:14.853Z,8.00
2017-11-10T05:34:42.447Z,8.00
2017-11-10T05:37:09.936Z,7.90
2017-11-10T05:39:36.722Z,7.90
2017-11-10T05:42:03.836Z,7.90
2017-11-10T05:44:30.114Z,7.90
2017-11-10T05:46:56.370Z,7.90
2017-11-10T05:49:23.222Z,7.90
2017-11-10T05:51:50.544Z,7.90
2017-11-10T05:54:16.902Z,7.80
2017-11-10T05:56:43.775Z,7.90
2017-11-10T05:59:10.316Z,7.90
2017-11-10T06:01:37.134Z,7.90
2017-11-10T06:04:04.471Z,7.90
2017-11-10T06:06:31.674Z,7.90
2017-11-10T06:08:59.275Z,7.80
2017-11-10T06:11:27.003Z,7.80
2017-11-10T06:13:53.301Z,7.80
2017-11-10T06:16:20.086Z,7.80
2017-11-10T06:18:47.876Z,7.70
2017-11-10T06:21:15.445Z,7.80
2017-11-10T06:23:41.695Z,7.80
2017-11-10T06:26:07.880Z,7.80
2017-11-10T06:28:34.452Z,7.90
2017-11-10T06:31:01.463Z,7.80
2017-11-10T06:33:27.981Z,7.80
2017-11-10T06:35:55.850Z,7.80
2017-11-10T06:38:23.116Z,7.80
2017-11-10T06:40:49.674Z,7.80
2017-11-10T06:43:16.702Z,8.00
2017-11-10T06:45:44.473Z,8.00
2017-11-10T06:48:12.107Z,7.90
2017-11-10T06:50:38.785Z,7.90
2017-11-10T06:53:05.977Z,7.90
2017-11-10T06:55:33.510Z,7.90
2017-11-10T06:58:00.178Z,7.90
2017-11-10T07:00:27.485Z,7.90
2017-11-10T07:02:55.259Z,7.90
2017-11-10T07:05:22.057Z,7.80
2017-11-10T07:07:49.570Z,7.80
2017-11-10T07:10:16.200Z,7.70
2017-11-10T07:12:43.031Z,7.70
2017-11-10T07:15:09.221Z,7.70
2017-11-10T07:17:36.080Z,7.70
2017-11-10T07:20:02.337Z,7.80
2017-11-10T07:22:28.963Z,7.80
2017-11-10T07:24:56.285Z,7.80
2017-11-10T07:27:23.941Z,7.80
2017-11-10T07:29:50.138Z,7.80
2017-11-10T07:32:18.086Z,7.80
2017-11-10T07:34:45.208Z,7.80
2017-11-10T07:37:11.588Z,7.80
2017-11-10T07:39:38.773Z,7.90
2017-11-10T07:42:05.807Z,7.90
2017-11-10T07:44:32.553Z,7.90
2017-11-10T07:46:58.810Z,7.80
2017-11-10T07:49:26.015Z,7.80
2017-11-10T07:51:52.972Z,7.80
2017-11-10T07:54:19.245Z,7.80
2017-11-10T07:56:45.461Z,7.80
2017-11-10T07:59:12.229Z,7.80
2017-11-10T08:01:38.447Z,7.80
2017-11-10T08:04:05.289Z,7.80
2017-11-10T08:06:31.972Z,7.80
2017-11-10T08:08:58.766Z,7.80
2017-11-10T08:11:25.763Z,7.70
2017-11-10T08:13:52.505Z,7.80
2017-11-10T08:16:18.886Z,7.70
2017-11-10T08:18:45.714Z,7.80
2017-11-10T08:21:11.911Z,7.80
2017-11-10T08:23:39.048Z,7.80
2017-11-10T08:26:05.289Z,8.00
2017-11-10T08:28:31.512Z,8.00
2017-11-10T08:30:58.107Z,8.00
2017-11-10T08:33:25.968Z,8.10
2017-11-10T08:35:53.186Z,8.10
2017-11-10T08:38:19.927Z,8.10
2017-11-10T08:40:47.671Z,8.10
2017-11-10T08:43:14.913Z,8.10
2017-11-10T08:45:42.326Z,8.20
2017-11-10T08:48:09.805Z,8.20
2017-11-10T08:50:37.287Z,8.20
2017-11-10T08:53:04.031Z,8.20
2017-11-10T08:55:30.242Z,8.20
2017-11-10T08:57:58.165Z,8.30
2017-11-10T09:00:25.664Z,8.30
2017-11-10T09:02:52.817Z,8.30
2017-11-10T09:05:19.977Z,8.30
2017-11-10T09:07:47.657Z,8.40
2017-11-10T09:10:13.897Z,8.40
2017-11-10T09:12:40.616Z,8.40
2017-11-10T09:15:08.385Z,8.40
2017-11-10T09:17:35.150Z,8.50
2017-11-10T09:20:02.221Z,8.60
2017-11-10T09:22:29.475Z,8.60
2017-11-10T09:24:56.493Z,8.70
2017-11-10T09:27:23.317Z,8.70
2017-11-10T09:30:05.786Z,8.60
2017-11-10T09:32:35.850Z,8.50
2017-11-10T09:35:08.241Z,8.50
2017-11-10T09:37:41.986Z,8.60
2017-11-10T09:40:10.016Z,8.70
2017-11-10T09:42:42.871Z,8.70
2017-11-10T09:48:29.040Z,8.80
2017-11-10T09:51:02.654Z,8.80
2017-11-10T09:53:36.291Z,8.90
2017-11-10T09:56:05.890Z,8.90
2017-11-10T09:58:48.556Z,9.00
2017-11-10T10:01:21.495Z,9.00
2017-11-10T10:04:03.978Z,9.00
2017-11-10T10:06:36.357Z,9.00
2017-11-10T10:09:20.822Z,9.00
2017-11-10T10:11:50.817Z,9.00
2017-11-10T10:14:17.056Z,9.00
2017-11-10T10:16:47.274Z,9.00
2017-11-10T10:19:14.069Z,9.00
2017-11-10T10:21:46.932Z,9.10
2017-11-10T10:24:13.583Z,9.10
2017-11-10T10:26:40.638Z,9.10
2017-11-10T10:29:06.909Z,9.10
2017-11-10T10:31:33.583Z,9.10
2017-11-10T10:34:01.618Z,9.20
2017-11-10T10:36:28.417Z,9.20
2017-11-10T10:38:56.456Z,9.20
2017-11-10T10:41:23.695Z,9.20
2017-11-10T10:43:49.953Z,9.20
2017-11-10T10:46:17.177Z,9.20
2017-11-10T10:48:44.470Z,9.20
2017-11-10T10:51:10.728Z,9.00
2017-11-10T10:53:37.342Z,9.10
2017-11-10T10:56:04.757Z,9.00
2017-11-10T10:58:31.764Z,9.00
2017-11-10T11:00:59.207Z,9.10
2017-11-10T11:03:26.018Z,9.10
2017-11-10T11:05:53.423Z,8.90
2017-11-10T11:08:21.632Z,8.90
2017-11-10T11:10:48.401Z,8.90
2017-11-10T11:13:15.172Z,9.00
2017-11-10T11:15:42.717Z,9.00
2017-11-10T11:18:09.276Z,9.00
2017-11-10T11:20:36.118Z,9.00
2017-11-10T11:23:03.496Z,9.00
2017-11-10T11:25:30.781Z,9.10
2017-11-10T11:27:58.774Z,9.10
2017-11-10T11:30:25.454Z,9.10
2017-11-10T11:32:52.269Z,9.10
2017-11-10T11:35:19.358Z,9.20
2017-11-10T11:37:45.619Z,9.20
2017-11-10T11:40:12.480Z,9.10
2017-11-10T11:42:39.452Z,9.10
2017-11-10T11:45:05.979Z,9.10
2017-11-10T11:47:32.278Z,9.10
2017-11-10T11:49:59.076Z,9.00
2017-11-10T11:52:25.608Z,9.10
2017-11-10T11:54:53.207Z,9.00
2017-11-10T11:57:19.966Z,9.00
2017-11-10T11:59:46.961Z,8.90
2017-11-10T12:02:13.148Z,8.90
2017-11-10T12:04:40.441Z,8.80
2017-11-10T12:07:07.920Z,8.90
2017-11-10T12:09:35.135Z,8.90
2017-11-10T12:12:01.854Z,9.00
2017-11-10T12:14:28.651Z,9.00
2017-11-10T12:16:56.163Z,8.90
2017-11-10T12:19:23.459Z,8.90
2017-11-10T12:21:50.477Z,8.80
2017-11-10T12:24:16.786Z,8.80
2017-11-10T12:26:43.043Z,8.80
2017-11-10T12:29:10.119Z,8.90
2017-11-10T12:31:38.296Z,8.90
2017-11-10T12:34:05.296Z,8.90
2017-11-10T12:36:31.626Z,9.00
2017-11-10T12:38:58.465Z,8.90
2017-11-10T12:41:25.465Z,8.90
2017-11-10T12:43:51.979Z,8.90
2017-11-10T12:46:18.283Z,9.00
2017-11-10T12:48:51.991Z,9.00
2017-11-10T12:51:19.726Z,9.00
2017-11-10T12:53:46.945Z,9.00
2017-11-10T12:56:13.860Z,9.00
2017-11-10T12:58:40.108Z,8.90
2017-11-10T13:01:07.021Z,8.90
2017-11-10T13:03:35.025Z,8.80
2017-11-10T13:06:01.790Z,8.80
2017-11-10T13:08:28.785Z,8.80
2017-11-10T13:10:56.025Z,8.80
2017-11-10T13:13:22.519Z,8.90
2017-11-10T13:15:50.149Z,8.90
2017-11-10T13:18:16.529Z,8.90
2017-11-10T13:20:43.534Z,8.90
2017-11-10T13:23:09.764Z,9.00
2017-11-10T13:25:37.017Z,8.90
2017-11-10T13:28:03.229Z,9.00
2017-11-10T13:30:30.127Z,9.00
2017-11-10T13:32:56.869Z,9.00
2017-11-10T13:35:23.613Z,9.00
2017-11-10T13:37:50.789Z,9.00
2017-11-10T13:40:17.005Z,8.90
2017-11-10T13:42:43.821Z,9.00
2017-11-10T13:45:10.871Z,9.00
2017-11-10T13:47:37.080Z,8.90
2017-11-10T13:50:04.247Z,8.90
2017-11-10T13:52:31.082Z,8.90
2017-11-10T13:54:58.023Z,8.90
2017-11-10T13:57:24.983Z,8.90
2017-11-10T13:59:51.808Z,8.90
2017-11-10T14:02:19.280Z,8.80
2017-11-10T14:04:46.678Z,8.90
2017-11-10T14:07:13.721Z,8.90
2017-11-10T14:09:39.936Z,8.90
2017-11-10T14:12:06.894Z,8.80
2017-11-10T14:14:33.341Z,8.70
2017-11-10T14:17:00.903Z,8.70
2017-11-10T14:19:28.125Z,8.70
2017-11-10T14:21:54.845Z,8.70
2017-11-10T14:24:21.073Z,8.70
2017-11-10T14:26:47.303Z,8.70
2017-11-10T14:29:14.137Z,8.70
2017-11-10T14:31:40.929Z,8.80
2017-11-10T14:34:08.147Z,8.70
2017-11-10T14:36:34.388Z,8.70
2017-11-10T14:39:00.621Z,8.70
2017-11-10T14:41:27.625Z,8.70
2017-11-10T14:43:53.863Z,8.60
2017-11-10T14:46:20.664Z,8.50
2017-11-10T14:48:48.126Z,8.50
2017-11-10T14:51:15.591Z,8.30
2017-11-10T14:53:43.005Z,8.40
2017-11-10T14:56:09.804Z,8.30
2017-11-10T14:58:36.017Z,8.30
2017-11-10T15:01:02.983Z,8.40
2017-11-10T15:03:29.663Z,8.40
2017-11-10T15:05:55.935Z,8.40
2017-11-10T15:08:22.172Z,8.30
2017-11-10T15:10:49.051Z,8.30
2017-11-10T15:13:15.825Z,8.30
2017-11-10T15:15:42.174Z,8.20
2017-11-10T15:18:09.547Z,8.20
2017-11-10T15:20:36.654Z,8.20
2017-11-10T15:23:02.868Z,8.20
2017-11-10T15:25:30.130Z,8.30
2017-11-10T15:27:56.904Z,8.30
2017-11-10T15:30:23.900Z,8.20
2017-11-10T15:32:50.707Z,8.30
2017-11-10T15:35:16.980Z,8.20
2017-11-10T15:37:43.362Z,8.20
2017-11-10T15:40:11.009Z,8.20
2017-11-10T15:42:38.010Z,8.00
2017-11-10T15:45:04.479Z,8.00
2017-11-10T15:47:32.111Z,7.70
2017-11-10T15:49:58.348Z,7.70
2017-11-10T15:52:25.118Z,7.70
2017-11-10T15:54:52.693Z,7.60
2017-11-10T15:57:19.779Z,7.60
2017-11-10T15:59:47.420Z,7.50
2017-11-10T16:02:13.680Z,7.50
2017-11-10T16:04:40.360Z,7.50
2017-11-10T16:07:06.619Z,7.50
2017-11-10T16:09:33.190Z,7.50
2017-11-10T16:12:00.331Z,7.60
2017-11-10T16:14:27.055Z,7.70
2017-11-10T16:16:53.275Z,7.70
2017-11-10T16:19:20.032Z,7.70
2017-11-10T16:21:46.551Z,7.70
2017-11-10T16:24:13.567Z,7.70
2017-11-10T16:26:39.824Z,7.70
2017-11-10T16:29:06.343Z,7.60
2017-11-10T16:31:32.555Z,7.60
2017-11-10T16:34:00.066Z,7.40
2017-11-10T16:36:26.528Z,7.40
2017-11-10T16:38:54.128Z,7.60
2017-11-10T16:41:22.304Z,7.60
2017-11-10T16:43:49.909Z,7.60
2017-11-10T16:46:16.145Z,7.60
2017-11-10T16:48:43.638Z,7.60
2017-11-10T16:51:09.865Z,7.60
2017-11-10T16:53:36.099Z,7.60
2017-11-10T16:56:02.970Z,7.60
2017-11-10T16:58:30.193Z,7.70
2017-11-10T17:00:56.695Z,7.60
2017-11-10T17:03:23.798Z,7.60
2017-11-10T17:05:50.056Z,7.60
2017-11-10T17:08:17.128Z,7.50
2017-11-10T17:10:43.966Z,7.50
2017-11-10T17:13:11.956Z,7.40
2017-11-10T17:15:38.686Z,7.40
2017-11-10T17:18:05.443Z,7.30
2017-11-10T17:20:31.669Z,7.40
2017-11-10T17:22:58.036Z,7.30
2017-11-10T17:25:25.244Z,7.30
2017-11-10T17:27:51.996Z,7.20
2017-11-10T17:30:18.632Z,7.20
2017-11-10T17:32:46.799Z,7.20
2017-11-10T17:35:13.785Z,7.20
2017-11-10T17:37:40.032Z,7.20
2017-11-10T17:40:07.822Z,7.20
2017-11-10T17:42:34.934Z,7.10
2017-11-10T17:45:02.585Z,7.10
2017-11-10T17:47:29.812Z,7.10
2017-11-10T17:49:56.353Z,7.10
2017-11-10T17:52:23.068Z,7.00
2017-11-10T17:54:50.185Z,7.00
2017-11-10T17:57:16.470Z,7.10
2017-11-10T17:59:44.011Z,7.10
2017-11-10T18:02:10.880Z,7.10
2017-11-10T18:04:37.641Z,7.10
2017-11-10T18:07:03.907Z,7.20
2017-11-10T18:09:30.703Z,7.20
2017-11-10T18:11:57.918Z,7.10
2017-11-10T18:14:25.721Z,7.20
2017-11-10T18:16:52.501Z,7.20
2017-11-10T18:19:19.770Z,7.20
2017-11-10T18:21:47.311Z,7.20
2017-11-10T18:24:14.119Z,7.20
2017-11-10T18:26:41.317Z,7.20
2017-11-10T18:29:08.862Z,7.20
2017-11-10T18:31:35.654Z,7.30
2017-11-10T18:34:02.448Z,7.20
2017-11-10T18:36:30.055Z,7.20
2017-11-10T18:38:57.289Z,7.20
2017-11-10T18:41:24.330Z,7.10
2017-11-10T18:43:50.663Z,7.20
2017-11-10T18:46:16.919Z,7.10
2017-11-10T18:48:46.199Z,7.10
2017-11-10T18:51:12.448Z,7.20
2017-11-10T18:53:41.526Z,7.20
2017-11-10T18:56:09.252Z,7.20
2017-11-10T18:58:36.093Z,7.20
2017-11-10T19:01:03.043Z,7.20
2017-11-10T19:03:30.446Z,7.20
2017-11-10T19:05:58.196Z,7.20
2017-11-10T19:08:24.456Z,7.20
2017-11-10T19:10:51.541Z,7.40
2017-11-10T19:13:18.296Z,7.30
2017-11-10T19:15:44.872Z,7.40
2017-11-10T19:18:11.907Z,7.60
2017-11-10T19:20:38.134Z,7.60
2017-11-10T19:23:04.640Z,7.60
2017-11-10T19:25:32.680Z,7.60
2017-11-10T19:28:00.697Z,7.70
2017-11-10T19:30:27.590Z,7.60
2017-11-10T19:32:55.157Z,7.60
2017-11-10T19:35:21.973Z,7.60
2017-11-10T19:37:48.742Z,7.60
2017-11-10T19:40:15.483Z,7.60
2017-11-10T19:42:42.718Z,7.70
2017-11-10T19:45:09.725Z,7.60
2017-11-10T19:47:35.973Z,7.60
2017-11-10T19:50:02.959Z,7.60
2017-11-10T19:52:29.377Z,7.60
2017-11-10T19:54:56.134Z,7.60
2017-11-10T19:57:22.705Z,7.50
2017-11-10T19:59:50.011Z,7.50
2017-11-10T20:02:16.558Z,7.50
2017-11-10T20:04:43.429Z,7.40
2017-11-10T20:07:10.646Z,7.50
2017-11-10T20:09:38.026Z,7.60
2017-11-10T20:12:04.828Z,7.60
2017-11-10T20:14:32.397Z,7.50
2017-11-10T20:16:59.046Z,7.50
2017-11-10T20:19:26.078Z,7.50
2017-11-10T20:21:52.306Z,7.50
2017-11-10T20:24:19.549Z,7.50
2017-11-10T20:26:46.506Z,7.50
2017-11-10T20:29:13.401Z,7.50
2017-11-10T20:31:39.686Z,7.50
2017-11-10T20:34:06.459Z,7.50
2017-11-10T20:36:33.279Z,7.50
2017-11-10T20:39:00.542Z,7.50
2017-11-10T20:41:28.064Z,7.50
2017-11-10T20:43:55.219Z,7.50
2017-11-10T20:46:22.255Z,7.50
2017-11-10T20:48:49.817Z,7.50
2017-11-10T20:51:17.755Z,7.50
2017-11-10T20:53:44.527Z,7.50
2017-11-10T20:56:11.276Z,7.50
2017-11-10T20:58:39.286Z,7.50
2017-11-10T21:01:06.679Z,7.50
2017-11-10T21:03:33.866Z,7.40
2017-11-10T21:06:01.418Z,7.40
2017-11-10T21:08:28.432Z,7.40
2017-11-10T21:10:56.069Z,7.40
2017-11-10T21:13:23.831Z,7.40
2017-11-10T21:15:51.097Z,7.50
2017-11-10T21:18:17.866Z,7.50
2017-11-10T21:20:44.065Z,7.50
2017-11-10T21:23:10.875Z,7.50
2017-11-10T21:25:37.272Z,7.50
2017-11-10T21:28:04.120Z,7.50
2017-11-10T21:30:30.737Z,7.50
2017-11-10T21:32:57.834Z,7.50
2017-11-10T21:35:25.287Z,7.50
2017-11-10T21:37:52.507Z,7.60
2017-11-10T21:40:19.245Z,7.50
2017-11-10T21:42:45.924Z,7.60
2017-11-10T21:45:13.537Z,7.60
2017-11-10T21:47:39.771Z,7.60
2017-11-10T21:50:06.589Z,7.60
2017-11-10T21:52:34.428Z,7.60
2017-11-10T21:55:01.924Z,7.60
2017-11-10T21:57:28.936Z,7.60
2017-11-10T21:59:57.675Z,7.60
2017-11-10T22:02:25.289Z,7.60
2017-11-10T22:04:53.218Z,7.50
2017-11-10T22:07:21.045Z,7.50
2017-11-10T22:09:47.811Z,7.50
2017-11-10T22:12:14.784Z,7.50
2017-11-10T22:14:41.619Z,7.50
2017-11-10T22:17:08.308Z,7.50
2017-11-10T22:19:37.486Z,7.60
2017-11-10T22:22:04.277Z,7.50
2017-11-10T22:24:31.975Z,7.60
2017-11-10T22:26:59.553Z,7.60
2017-11-10T22:29:26.163Z,7.60
2017-11-10T22:31:55.156Z,7.50
2017-11-10T22:34:22.515Z,7.50
2017-11-10T22:36:49.499Z,7.50
2017-11-10T22:39:17.055Z,7.50
2017-11-10T22:41:43.994Z,7.60
2017-11-10T22:44:11.941Z,7.60
2017-11-10T22:46:38.931Z,7.60
2017-11-10T22:49:05.527Z,7.70
2017-11-10T22:51:33.117Z,7.60
2017-11-10T22:54:00.140Z,7.60
2017-11-10T22:56:27.381Z,7.60
2017-11-10T22:58:54.207Z,7.50
2017-11-10T23:01:21.910Z,7.60
2017-11-10T23:03:49.499Z,7.60
2017-11-10T23:06:15.919Z,7.60
2017-11-10T23:08:42.785Z,7.60
2017-11-10T23:11:10.026Z,7.60
2017-11-10T23:13:37.042Z,7.60
2017-11-10T23:16:04.057Z,7.60
2017-11-10T23:18:33.105Z,7.60
2017-11-10T23:20:59.735Z,7.60
2017-11-10T23:23:25.917Z,7.60
2017-11-10T23:25:52.585Z,7.50
2017-11-10T23:28:18.803Z,7.50
2017-11-10T23:30:46.041Z,7.50
2017-11-10T23:33:12.446Z,7.50
2017-11-10T23:35:39.497Z,7.50
2017-11-10T23:38:06.241Z,7.50
2017-11-10T23:40:32.983Z,7.50
2017-11-10T23:42:59.753Z,7.50
2017-11-10T23:45:27.833Z,7.50
2017-11-10T23:47:54.558Z,7.50
2017-11-10T23:50:20.896Z,7.40
2017-11-10T23:52:47.308Z,7.50
2017-11-10T23:55:13.750Z,7.50
2017-11-10T23:57:41.215Z,7.50
